Time;durP1;ratioP1;P1;durP2;ratioP2;P2;SDS_P1;SDS_P2;PMS_P1;PMS_P2;Temp;Humidity;BMP_temperature;BMP_pressure;BME280_temperature;BME280_humidity;BME280_pressure;Samples;Min_cycle;Max_cycle;Signal;HPM_P1;HPM_P2
2021/11/29 00:00:18;;;;;;;2.75;0.38;;;3.00;99.90;;;;;;5054041;28;20139;-75
2021/11/29 00:02:48;;;;;;;0.38;0.28;;;3.10;99.90;;;;;;5054506;28;20023;-76
2021/11/29 00:05:15;;;;;;;0.30;0.30;;;3.10;99.90;;;;;;5055122;28;20048;-77
2021/11/29 00:07:41;;;;;;;0.40;0.17;;;2.90;99.90;;;;;;5054441;28;20059;-76
2021/11/29 00:10:07;;;;;;;0.65;0.20;;;2.90;99.90;;;;;;5054785;28;20017;-76
2021/11/29 00:12:33;;;;;;;0.55;0.10;;;2.80;99.90;;;;;;5054339;28;20025;-76
2021/11/29 00:14:59;;;;;;;1.13;0.20;;;2.70;99.90;;;;;;5053604;28;20028;-76
2021/11/29 00:17:24;;;;;;;1.30;0.55;;;2.70;99.90;;;;;;5054262;28;20037;-76
2021/11/29 00:19:50;;;;;;;0.32;0.30;;;2.70;99.90;;;;;;5054497;28;20028;-76
2021/11/29 00:22:16;;;;;;;3.05;0.32;;;2.60;99.90;;;;;;5053459;28;20385;-75
2021/11/29 00:24:41;;;;;;;0.28;0.28;;;2.70;99.90;;;;;;5054569;28;20009;-77
2021/11/29 00:27:07;;;;;;;0.28;0.25;;;2.90;99.90;;;;;;5054692;28;20031;-76
2021/11/29 00:29:33;;;;;;;2.92;0.30;;;2.90;99.90;;;;;;5054064;28;20032;-77
2021/11/29 00:31:58;;;;;;;0.85;0.40;;;2.90;99.90;;;;;;5054763;28;20401;-77
2021/11/29 00:34:24;;;;;;;2.75;0.30;;;2.90;99.90;;;;;;5053885;28;20021;-76
2021/11/29 00:36:50;;;;;;;0.20;0.20;;;3.00;99.90;;;;;;5054418;28;20535;-77
2021/11/29 00:39:17;;;;;;;0.38;0.30;;;3.00;99.90;;;;;;5054980;28;20088;-77
2021/11/29 00:41:45;;;;;;;3.47;0.30;;;2.90;99.90;;;;;;5053576;28;20040;-78
2021/11/29 00:44:11;;;;;;;2.20;0.30;;;2.80;99.90;;;;;;5054061;28;20055;-76
2021/11/29 00:46:37;;;;;;;1.90;0.20;;;2.90;99.90;;;;;;5053921;28;20024;-77
2021/11/29 00:49:03;;;;;;;0.20;0.20;;;2.80;99.90;;;;;;5053248;28;20078;-76
2021/11/29 00:51:29;;;;;;;2.33;0.20;;;2.70;99.90;;;;;;5054003;28;20036;-76
2021/11/29 00:53:54;;;;;;;2.25;0.30;;;2.70;99.90;;;;;;5053914;28;20021;-77
2021/11/29 00:56:21;;;;;;;0.20;0.20;;;2.80;99.90;;;;;;5053359;28;20452;-78
2021/11/29 00:58:48;;;;;;;0.73;0.50;;;2.70;99.90;;;;;;5052599;28;20393;-77
2021/11/29 01:01:14;;;;;;;2.22;0.40;;;2.60;99.90;;;;;;5053313;28;20492;-77
2021/11/29 01:03:40;;;;;;;1.13;0.52;;;2.60;99.90;;;;;;5053478;28;20037;-78
2021/11/29 01:06:06;;;;;;;5.10;0.55;;;2.70;99.90;;;;;;5053610;28;20296;-77
2021/11/29 01:08:32;;;;;;;2.95;0.75;;;2.70;99.90;;;;;;5054254;28;20036;-77
2021/11/29 01:10:58;;;;;;;2.60;0.85;;;2.70;99.90;;;;;;5052727;28;20154;-78
2021/11/29 01:13:24;;;;;;;1.80;1.13;;;2.70;99.90;;;;;;5053754;28;20060;-78
2021/11/29 01:15:50;;;;;;;1.60;1.00;;;2.70;99.90;;;;;;5053674;28;20495;-77
2021/11/29 01:18:16;;;;;;;1.52;1.17;;;2.70;99.90;;;;;;5053545;28;20029;-78
2021/11/29 01:20:44;;;;;;;0.95;0.80;;;2.70;99.90;;;;;;5053777;28;20103;-77
2021/11/29 01:23:11;;;;;;;2.15;1.02;;;2.80;99.90;;;;;;5052957;28;20025;-78
2021/11/29 01:25:36;;;;;;;2.28;0.80;;;2.70;99.90;;;;;;5052821;28;20422;-78
2021/11/29 01:28:04;;;;;;;0.85;0.55;;;2.50;99.90;;;;;;5052783;28;20074;-78
2021/11/29 01:30:30;;;;;;;2.95;0.80;;;2.40;99.90;;;;;;5053527;28;20024;-78
2021/11/29 01:32:55;;;;;;;3.92;1.10;;;2.40;99.90;;;;;;5052691;28;20026;-76
2021/11/29 01:35:21;;;;;;;1.15;0.80;;;2.30;99.90;;;;;;5053169;28;20021;-77
2021/11/29 01:37:47;;;;;;;4.32;0.93;;;2.30;99.90;;;;;;5054626;28;20489;-76
2021/11/29 01:40:12;;;;;;;3.22;0.85;;;2.30;99.90;;;;;;5056804;28;20025;-76
2021/11/29 01:42:52;;;;;;;1.75;1.10;;;2.20;99.90;;;;;;5053450;28;20365;-76
2021/11/29 01:45:17;;;;;;;3.92;1.10;;;2.10;99.90;;;;;;5052353;28;20090;-77
2021/11/29 01:47:43;;;;;;;1.27;0.85;;;2.00;99.90;;;;;;5053564;28;20461;-76
2021/11/29 01:50:08;;;;;;;1.85;0.95;;;2.00;99.90;;;;;;5055003;28;20017;-76
2021/11/29 01:52:34;;;;;;;3.33;0.82;;;2.10;99.90;;;;;;5054131;28;20028;-77
2021/11/29 01:54:59;;;;;;;0.82;0.73;;;2.10;99.90;;;;;;5055778;28;20021;-77
2021/11/29 01:57:25;;;;;;;1.05;0.70;;;2.10;99.90;;;;;;5052655;28;20468;-77
2021/11/29 01:59:51;;;;;;;2.42;1.40;;;2.10;99.90;;;;;;5051998;28;20481;-76
2021/11/29 02:02:18;;;;;;;0.50;0.50;;;2.00;99.90;;;;;;5052070;28;20029;-75
2021/11/29 02:04:45;;;;;;;3.22;0.73;;;2.10;99.90;;;;;;5052671;28;20028;-76
2021/11/29 02:07:11;;;;;;;0.32;0.32;;;2.10;99.90;;;;;;5054154;28;20053;-77
2021/11/29 02:09:37;;;;;;;10.73;1.95;;;2.30;99.90;;;;;;5056004;28;20025;-77
2021/11/29 02:12:03;;;;;;;0.30;0.30;;;2.30;99.90;;;;;;5064087;28;20041;-77
2021/11/29 02:14:29;;;;;;;1.35;0.30;;;2.40;99.90;;;;;;5053496;28;20101;-77
2021/11/29 02:16:55;;;;;;;0.28;0.28;;;2.40;99.90;;;;;;5052483;28;20029;-78
2021/11/29 02:19:22;;;;;;;1.13;0.40;;;2.50;99.90;;;;;;5052152;28;20037;-76
2021/11/29 02:21:48;;;;;;;2.38;0.30;;;2.50;99.90;;;;;;5051438;28;20071;-77
2021/11/29 02:24:13;;;;;;;0.40;0.30;;;2.40;99.90;;;;;;5052295;28;20041;-76
2021/11/29 02:26:39;;;;;;;3.47;0.35;;;2.40;99.90;;;;;;5054347;28;20457;-74
2021/11/29 02:29:12;;;;;;;3.42;0.40;;;2.50;99.90;;;;;;5052427;28;20028;-76
2021/11/29 02:31:44;;;;;;;2.55;0.30;;;2.50;99.90;;;;;;5052767;28;20071;-76
2021/11/29 02:34:30;;;;;;;1.00;0.30;;;2.70;99.90;;;;;;5051963;28;20032;-76
2021/11/29 02:36:59;;;;;;;0.30;0.20;;;2.60;99.90;;;;;;5053311;28;20032;-76
2021/11/29 02:39:24;;;;;;;0.28;0.20;;;2.60;99.90;;;;;;5054519;28;20550;-76
2021/11/29 02:41:53;;;;;;;0.90;0.22;;;2.60;99.90;;;;;;5051769;28;20025;-74
2021/11/29 02:44:19;;;;;;;0.10;0.10;;;2.50;99.90;;;;;;5052177;28;20033;-76
2021/11/29 02:46:45;;;;;;;1.08;0.30;;;2.30;99.90;;;;;;5052163;28;20040;-75
2021/11/29 02:49:13;;;;;;;0.20;0.20;;;2.30;99.90;;;;;;5050965;28;20021;-77
2021/11/29 02:51:50;;;;;;;1.75;0.43;;;2.20;99.90;;;;;;5051929;28;20040;-77
2021/11/29 02:54:20;;;;;;;1.25;0.38;;;2.10;99.90;;;;;;5051395;28;20465;-78
2021/11/29 02:56:50;;;;;;;1.95;0.35;;;2.20;99.90;;;;;;5051069;28;20033;-78
2021/11/29 02:59:22;;;;;;;0.75;0.50;;;2.10;99.90;;;;;;5051664;28;20025;-77
2021/11/29 03:01:51;;;;;;;1.20;0.50;;;2.10;99.90;;;;;;5051925;28;20033;-78
2021/11/29 03:04:21;;;;;;;0.50;0.40;;;2.00;99.90;;;;;;5050723;28;20078;-76
2021/11/29 03:06:47;;;;;;;5.13;0.83;;;2.00;99.90;;;;;;5051750;28;20057;-77
2021/11/29 03:09:13;;;;;;;2.90;0.60;;;2.10;99.90;;;;;;5050481;28;20283;-76
2021/11/29 03:11:39;;;;;;;1.48;0.50;;;2.20;99.90;;;;;;5051407;28;20045;-76
2021/11/29 03:14:06;;;;;;;0.60;0.60;;;2.20;99.90;;;;;;5051511;28;20029;-76
2021/11/29 03:16:31;;;;;;;1.63;0.70;;;2.20;99.90;;;;;;5051322;28;20108;-75
2021/11/29 03:18:58;;;;;;;2.17;0.70;;;2.20;99.90;;;;;;5051273;28;20135;-77
2021/11/29 03:21:25;;;;;;;4.55;1.08;;;2.20;99.90;;;;;;5051700;28;20504;-77
2021/11/29 03:23:55;;;;;;;2.70;1.33;;;2.30;99.90;;;;;;5053577;28;20071;-77
2021/11/29 03:26:22;;;;;;;5.78;3.13;;;2.40;99.90;;;;;;5055617;28;20028;-77
2021/11/29 03:28:50;;;;;;;4.25;1.90;;;2.50;99.90;;;;;;5055149;28;20472;-77
2021/11/29 03:31:17;;;;;;;3.30;1.40;;;2.50;99.90;;;;;;5054598;28;20020;-77
2021/11/29 03:33:44;;;;;;;1.90;1.00;;;2.60;99.90;;;;;;5055369;28;20110;-76
2021/11/29 03:36:11;;;;;;;5.18;1.30;;;2.70;99.90;;;;;;5055230;28;20389;-77
2021/11/29 03:38:38;;;;;;;7.28;1.40;;;2.70;99.90;;;;;;5054597;28;20052;-76
2021/11/29 03:41:07;;;;;;;3.50;1.02;;;2.50;99.90;;;;;;5061581;28;20028;-75
2021/11/29 03:43:33;;;;;;;2.67;1.40;;;2.60;99.90;;;;;;5055115;28;20025;-76
2021/11/29 03:45:58;;;;;;;2.13;1.88;;;2.50;99.90;;;;;;5054044;28;20036;-76
2021/11/29 03:48:24;;;;;;;2.83;1.73;;;2.40;99.90;;;;;;5055671;28;20021;-75
2021/11/29 03:50:50;;;;;;;2.03;1.63;;;2.30;99.90;;;;;;5057444;28;20047;-76
2021/11/29 03:53:16;;;;;;;2.00;1.75;;;2.30;99.90;;;;;;5054815;28;20021;-76
2021/11/29 03:55:41;;;;;;;2.78;1.85;;;2.30;99.90;;;;;;5055884;28;20021;-76
2021/11/29 03:58:08;;;;;;;2.50;2.30;;;2.30;99.90;;;;;;5055213;28;20029;-76
2021/11/29 04:00:33;;;;;;;2.42;2.00;;;2.30;99.90;;;;;;5054902;28;20029;-76
2021/11/29 04:03:00;;;;;;;3.40;1.85;;;2.30;99.90;;;;;;5054810;28;20021;-76
2021/11/29 04:05:26;;;;;;;4.78;1.70;;;2.20;99.90;;;;;;5053999;28;20091;-77
2021/11/29 04:07:52;;;;;;;2.22;2.05;;;2.10;99.90;;;;;;5054364;28;20389;-76
2021/11/29 04:10:17;;;;;;;1.80;1.65;;;2.20;99.90;;;;;;5054445;28;20025;-76
2021/11/29 04:12:43;;;;;;;3.42;1.80;;;2.20;99.90;;;;;;5057677;28;20021;-76
2021/11/29 04:15:09;;;;;;;2.50;1.42;;;2.20;99.90;;;;;;5056722;28;20032;-77
2021/11/29 04:17:39;;;;;;;1.95;1.33;;;2.20;99.90;;;;;;5054441;28;20064;-76
2021/11/29 04:20:07;;;;;;;1.95;1.67;;;2.20;99.90;;;;;;5053194;28;20478;-77
2021/11/29 04:22:33;;;;;;;2.88;1.60;;;2.10;99.90;;;;;;5054607;28;20036;-76
2021/11/29 04:25:01;;;;;;;1.50;1.40;;;2.00;99.90;;;;;;5054254;28;20021;-75
2021/11/29 04:27:28;;;;;;;2.53;1.50;;;2.10;99.90;;;;;;5053916;28;20021;-74
2021/11/29 04:29:54;;;;;;;5.82;2.00;;;1.90;99.90;;;;;;5054163;28;20066;-74
2021/11/29 04:32:20;;;;;;;3.10;1.30;;;1.90;99.90;;;;;;5054288;28;20390;-77
2021/11/29 04:34:46;;;;;;;3.33;1.63;;;1.90;99.90;;;;;;5053568;28;20079;-76
2021/11/29 04:37:14;;;;;;;1.30;1.20;;;1.80;99.90;;;;;;5053854;28;20040;-76
2021/11/29 04:39:40;;;;;;;1.65;1.55;;;1.70;99.90;;;;;;5054155;28;20025;-75
2021/11/29 04:42:06;;;;;;;4.47;1.80;;;1.70;99.90;;;;;;5053113;28;20016;-76
2021/11/29 04:44:31;;;;;;;5.43;1.90;;;1.80;99.90;;;;;;5054980;28;20075;-75
2021/11/29 04:46:57;;;;;;;4.93;1.80;;;1.90;99.90;;;;;;5054356;28;20381;-74
2021/11/29 04:49:23;;;;;;;4.88;1.70;;;1.90;99.90;;;;;;5053772;28;20107;-76
2021/11/29 04:51:48;;;;;;;2.03;1.60;;;2.00;99.90;;;;;;5053858;28;20036;-76
2021/11/29 04:54:15;;;;;;;7.00;1.58;;;2.20;99.90;;;;;;5053446;28;20527;-76
2021/11/29 04:56:44;;;;;;;5.97;1.55;;;2.30;99.90;;;;;;5052966;28;20029;-77
2021/11/29 04:59:09;;;;;;;4.30;1.67;;;2.40;99.90;;;;;;5053176;28;20036;-76
2021/11/29 05:01:35;;;;;;;3.20;1.50;;;2.40;99.90;;;;;;5054439;28;20025;-76
2021/11/29 05:04:01;;;;;;;5.47;2.03;;;2.40;99.90;;;;;;5056363;28;20029;-76
2021/11/29 05:06:26;;;;;;;3.38;1.73;;;2.40;99.90;;;;;;5054300;28;20080;-75
2021/11/29 05:08:52;;;;;;;8.90;2.13;;;2.40;99.90;;;;;;5052773;28;20075;-76
2021/11/29 05:11:17;;;;;;;10.07;2.00;;;2.30;99.90;;;;;;5053311;28;20017;-75
2021/11/29 05:13:43;;;;;;;5.05;1.60;;;2.30;99.90;;;;;;5054059;28;20029;-76
2021/11/29 05:16:09;;;;;;;3.88;1.58;;;2.30;99.90;;;;;;5052627;28;20040;-76
2021/11/29 05:18:35;;;;;;;1.80;1.60;;;2.20;99.90;;;;;;5054205;28;20090;-76
2021/11/29 05:21:04;;;;;;;3.70;1.92;;;2.10;99.90;;;;;;5052967;28;20024;-74
2021/11/29 05:23:30;;;;;;;4.75;1.55;;;2.00;99.90;;;;;;5052548;28;20064;-76
2021/11/29 05:25:56;;;;;;;2.78;1.23;;;2.00;99.90;;;;;;5053023;28;20045;-74
2021/11/29 05:28:22;;;;;;;8.38;1.60;;;2.60;99.90;;;;;;5053551;28;20028;-74
2021/11/29 05:30:47;;;;;;;3.05;1.58;;;2.10;99.90;;;;;;5052917;28;20419;-75
2021/11/29 05:33:13;;;;;;;7.55;1.30;;;2.10;99.90;;;;;;5053293;28;20977;-76
2021/11/29 05:35:38;;;;;;;1.58;1.38;;;2.10;99.90;;;;;;5053321;28;20036;-75
2021/11/29 05:38:04;;;;;;;2.42;1.13;;;2.00;99.90;;;;;;5052139;28;20045;-75
2021/11/29 05:40:30;;;;;;;4.13;1.20;;;1.90;99.90;;;;;;5053058;28;20393;-74
2021/11/29 05:42:56;;;;;;;3.80;1.40;;;1.90;99.90;;;;;;5062375;28;20029;-74
2021/11/29 05:45:22;;;;;;;6.53;1.63;;;1.70;99.90;;;;;;5051809;28;20017;-76
2021/11/29 05:47:48;;;;;;;4.38;1.48;;;1.80;99.90;;;;;;5056258;28;20029;-76
2021/11/29 05:50:15;;;;;;;7.05;1.38;;;1.80;99.90;;;;;;5054497;28;20454;-75
2021/11/29 05:52:41;;;;;;;8.55;1.10;;;1.80;99.90;;;;;;5059177;28;20025;-76
2021/11/29 05:55:08;;;;;;;4.85;1.13;;;1.70;99.90;;;;;;5052946;28;20496;-76
2021/11/29 05:57:34;;;;;;;8.32;1.10;;;1.70;99.90;;;;;;5062495;28;20044;-75
2021/11/29 05:59:59;;;;;;;4.35;1.00;;;1.70;99.90;;;;;;5052133;28;20029;-75
2021/11/29 06:02:25;;;;;;;5.22;1.40;;;1.60;99.90;;;;;;5052482;28;20136;-74
2021/11/29 06:04:50;;;;;;;6.05;1.08;;;1.50;99.90;;;;;;5052418;28;20546;-76
2021/11/29 06:07:16;;;;;;;6.03;1.05;;;1.60;99.90;;;;;;5051434;28;20048;-75
2021/11/29 06:09:42;;;;;;;4.10;0.70;;;1.80;99.90;;;;;;5052128;28;20047;-76
2021/11/29 06:12:07;;;;;;;7.32;1.15;;;1.90;99.90;;;;;;5051343;28;20113;-76
2021/11/29 06:14:33;;;;;;;1.75;0.63;;;2.10;99.90;;;;;;5052114;28;20029;-76
2021/11/29 06:16:59;;;;;;;5.50;0.93;;;2.20;99.90;;;;;;5051830;28;20477;-75
2021/11/29 06:19:24;;;;;;;7.07;0.80;;;2.20;99.90;;;;;;5051286;28;20089;-75
2021/11/29 06:21:50;;;;;;;8.18;1.40;;;2.10;99.90;;;;;;5049970;28;20042;-76
2021/11/29 06:24:25;;;;;;;5.28;1.27;;;2.10;99.90;;;;;;5035248;28;20034;-76
2021/11/29 06:26:50;;;;;;;2.22;0.60;;;2.30;99.90;;;;;;5033371;28;20390;-77
2021/11/29 06:29:16;;;;;;;2.70;0.85;;;2.30;99.90;;;;;;5033259;28;20021;-77
2021/11/29 06:31:42;;;;;;;1.52;1.02;;;2.40;99.90;;;;;;5035632;28;20051;-77
2021/11/29 06:34:07;;;;;;;2.78;0.70;;;2.30;99.90;;;;;;5036505;28;20036;-77
2021/11/29 06:36:33;;;;;;;5.85;0.77;;;2.40;99.90;;;;;;5037732;28;20470;-76
2021/11/29 06:39:00;;;;;;;2.38;0.90;;;2.50;99.90;;;;;;5034730;28;20048;-76
2021/11/29 06:41:26;;;;;;;1.10;0.45;;;2.60;99.90;;;;;;5035606;28;20089;-75
2021/11/29 06:43:52;;;;;;;3.30;0.60;;;2.70;99.90;;;;;;5035157;28;20043;-75
2021/11/29 06:46:18;;;;;;;3.13;0.50;;;2.80;99.90;;;;;;5032752;28;20092;-76
2021/11/29 06:48:44;;;;;;;8.85;0.73;;;2.80;99.90;;;;;;5033439;28;20021;-76
2021/11/29 06:51:10;;;;;;;4.88;0.65;;;2.80;99.90;;;;;;5036695;28;20018;-76
2021/11/29 06:53:36;;;;;;;6.15;0.90;;;2.80;99.90;;;;;;5034052;28;20025;-76
2021/11/29 06:56:03;;;;;;;6.43;0.90;;;2.80;99.90;;;;;;5029863;28;20032;-75
2021/11/29 06:58:29;;;;;;;3.35;0.50;;;2.90;99.90;;;;;;5037029;28;20071;-76
2021/11/29 07:00:56;;;;;;;7.20;1.15;;;2.80;99.90;;;;;;5046523;28;20075;-76
2021/11/29 07:03:22;;;;;;;4.18;0.70;;;2.70;99.90;;;;;;5038063;28;20026;-76
2021/11/29 07:05:50;;;;;;;10.02;1.00;;;2.70;99.90;;;;;;5037442;28;20017;-77
2021/11/29 07:08:16;;;;;;;3.78;0.60;;;2.60;99.90;;;;;;5039444;28;20092;-76
2021/11/29 07:10:42;;;;;;;3.70;1.55;;;2.70;99.90;;;;;;5039734;28;20061;-76
2021/11/29 07:13:12;;;;;;;3.90;0.70;;;2.70;99.90;;;;;;5041825;28;20036;-77
2021/11/29 07:15:39;;;;;;;2.67;0.47;;;2.70;99.90;;;;;;5036593;28;20091;-76
2021/11/29 07:18:06;;;;;;;1.30;0.60;;;2.60;99.90;;;;;;5043127;28;20045;-76
2021/11/29 07:20:32;;;;;;;2.97;0.95;;;2.70;99.90;;;;;;5051377;28;20058;-75
2021/11/29 07:22:58;;;;;;;10.55;0.90;;;2.80;99.90;;;;;;5055075;28;20088;-76
2021/11/29 07:25:23;;;;;;;3.30;0.77;;;2.90;99.90;;;;;;5048778;28;20109;-76
2021/11/29 07:27:49;;;;;;;10.75;1.67;;;3.10;99.90;;;;;;5054392;28;20630;-77
2021/11/29 07:30:17;;;;;;;3.83;1.10;;;3.10;99.90;;;;;;5054106;28;20013;-77
2021/11/29 07:32:43;;;;;;;3.70;0.77;;;3.20;99.90;;;;;;5054568;28;20021;-76
2021/11/29 07:35:10;;;;;;;7.30;1.02;;;3.20;99.90;;;;;;5053838;28;20024;-76
2021/11/29 07:37:36;;;;;;;3.67;0.82;;;3.10;99.90;;;;;;5053221;28;20038;-76
2021/11/29 07:40:03;;;;;;;6.70;1.17;;;3.10;99.90;;;;;;5053532;28;20020;-76
2021/11/29 07:42:29;;;;;;;5.80;1.17;;;3.10;99.90;;;;;;5055111;28;20021;-76
2021/11/29 07:44:55;;;;;;;6.85;1.35;;;3.10;99.90;;;;;;5055668;28;20107;-76
2021/11/29 07:47:22;;;;;;;5.65;1.13;;;3.10;99.90;;;;;;5053626;28;20096;-76
2021/11/29 07:49:48;;;;;;;9.60;1.23;;;3.20;99.90;;;;;;5054349;28;20096;-76
2021/11/29 07:52:14;;;;;;;7.28;1.20;;;3.20;99.90;;;;;;5053503;28;20029;-76
2021/11/29 07:54:41;;;;;;;8.13;1.10;;;3.30;99.90;;;;;;5056067;28;20025;-75
2021/11/29 07:57:07;;;;;;;9.57;1.35;;;3.40;99.90;;;;;;5054240;28;20040;-77
2021/11/29 07:59:32;;;;;;;6.28;1.13;;;3.40;99.90;;;;;;5055631;28;20121;-76
2021/11/29 08:02:00;;;;;;;2.92;0.70;;;3.60;99.90;;;;;;5051722;28;20031;-78
2021/11/29 08:04:26;;;;;;;8.32;1.35;;;3.70;99.90;;;;;;5049627;28;20431;-80
2021/11/29 08:06:52;;;;;;;8.85;0.73;;;3.80;99.90;;;;;;5047609;28;20041;-79
2021/11/29 08:09:18;;;;;;;13.82;2.42;;;3.70;99.90;;;;;;5054145;28;20053;-77
2021/11/29 08:11:43;;;;;;;6.60;0.90;;;3.80;99.90;;;;;;5053175;28;20024;-81
2021/11/29 08:14:09;;;;;;;3.88;0.80;;;3.80;99.90;;;;;;5054282;28;20032;-83
2021/11/29 08:16:34;;;;;;;7.60;1.25;;;3.80;99.90;;;;;;5056270;28;20481;-84
2021/11/29 08:19:00;;;;;;;7.82;1.25;;;3.90;99.90;;;;;;5051107;28;20040;-81
2021/11/29 08:21:26;;;;;;;6.78;1.52;;;3.80;99.90;;;;;;5054283;28;20051;-82
2021/11/29 08:23:51;;;;;;;9.18;0.90;;;3.80;99.90;;;;;;5045842;28;20119;-82
2021/11/29 08:26:17;;;;;;;10.50;1.13;;;3.90;99.90;;;;;;5058196;28;20012;-82
2021/11/29 08:28:42;;;;;;;9.35;1.92;;;4.00;99.90;;;;;;5056415;28;20032;-83
2021/11/29 08:31:08;;;;;;;5.88;1.60;;;4.00;99.90;;;;;;5057357;28;20024;-85
2021/11/29 08:33:33;;;;;;;15.60;1.40;;;4.00;99.90;;;;;;5050046;28;20021;-80
2021/11/29 08:35:59;;;;;;;7.20;1.20;;;3.90;99.90;;;;;;5049859;28;20079;-80
2021/11/29 08:38:25;;;;;;;6.80;2.08;;;4.00;99.90;;;;;;5052430;28;20040;-80
2021/11/29 08:40:50;;;;;;;6.25;0.95;;;4.10;99.90;;;;;;5051481;28;20412;-77
2021/11/29 08:43:18;;;;;;;5.88;1.30;;;4.10;99.90;;;;;;5054999;28;20029;-83
2021/11/29 08:45:45;;;;;;;8.43;1.23;;;4.20;99.90;;;;;;5053268;28;20025;-85
2021/11/29 08:48:11;;;;;;;8.57;0.77;;;4.20;99.90;;;;;;5051142;28;20021;-79
2021/11/29 08:50:40;;;;;;;9.13;1.73;;;4.20;99.90;;;;;;5051571;28;20072;-83
2021/11/29 08:53:09;;;;;;;3.80;0.85;;;4.30;99.90;;;;;;5062976;28;20018;-84
2021/11/29 08:55:36;;;;;;;2.10;0.50;;;4.40;99.90;;;;;;5058523;28;20013;-81
2021/11/29 08:58:03;;;;;;;5.20;0.80;;;4.50;99.90;;;;;;5052683;28;20078;-83
2021/11/29 09:00:30;;;;;;;7.80;1.08;;;4.70;99.90;;;;;;5053356;28;20060;-80
2021/11/29 09:02:56;;;;;;;6.15;0.88;;;4.80;99.90;;;;;;5049707;28;20032;-80
2021/11/29 09:05:23;;;;;;;7.25;1.30;;;4.90;99.90;;;;;;5050292;28;20040;-82
2021/11/29 09:07:48;;;;;;;3.88;0.88;;;4.90;99.90;;;;;;5051658;28;20064;-77
2021/11/29 09:10:14;;;;;;;6.38;1.52;;;5.00;99.90;;;;;;5052631;28;20466;-76
2021/11/29 09:12:44;;;;;;;3.65;0.80;;;4.90;99.90;;;;;;5052663;28;20021;-74
2021/11/29 09:15:12;;;;;;;2.97;1.10;;;4.80;99.90;;;;;;5051254;28;20044;-77
2021/11/29 09:17:38;;;;;;;3.95;1.05;;;4.70;99.90;;;;;;5052683;28;20037;-82
2021/11/29 09:20:06;;;;;;;4.93;0.98;;;4.60;99.90;;;;;;5055073;28;20090;-85
2021/11/29 09:22:32;;;;;;;2.33;0.90;;;4.40;99.90;;;;;;5056877;28;20024;-81
2021/11/29 09:25:00;;;;;;;3.28;1.08;;;4.40;99.90;;;;;;5054676;28;20044;-83
2021/11/29 09:27:26;;;;;;;5.00;1.15;;;4.30;99.90;;;;;;5058028;28;20029;-84
2021/11/29 09:29:52;;;;;;;3.25;0.73;;;4.30;99.90;;;;;;5052873;28;20033;-82
2021/11/29 09:32:18;;;;;;;3.38;0.85;;;4.30;99.90;;;;;;5052183;28;20029;-82
2021/11/29 09:34:44;;;;;;;4.05;0.77;;;4.20;99.90;;;;;;5052566;28;20091;-83
2021/11/29 09:37:09;;;;;;;3.67;0.95;;;4.20;99.90;;;;;;5053331;28;20032;-84
2021/11/29 09:39:36;;;;;;;1.70;0.55;;;4.20;99.90;;;;;;5050981;28;20439;-82
2021/11/29 09:42:03;;;;;;;4.40;0.82;;;4.20;99.90;;;;;;5053766;28;20013;-81
2021/11/29 09:44:28;;;;;;;4.28;0.98;;;4.20;99.90;;;;;;5051275;28;21235;-80
2021/11/29 09:46:54;;;;;;;2.97;0.90;;;4.10;99.90;;;;;;5050324;28;20075;-79
2021/11/29 09:49:20;;;;;;;4.70;0.75;;;4.30;99.90;;;;;;5052056;28;20021;-80
2021/11/29 09:51:45;;;;;;;1.17;0.40;;;4.40;99.90;;;;;;5051076;28;20503;-79
2021/11/29 09:54:12;;;;;;;1.90;0.70;;;4.40;99.90;;;;;;5048625;28;20300;-79
2021/11/29 09:56:38;;;;;;;1.70;0.73;;;4.50;99.90;;;;;;5054899;28;20029;-81
2021/11/29 09:59:05;;;;;;;3.08;0.63;;;4.60;99.90;;;;;;5052787;28;20037;-80
2021/11/29 10:01:31;;;;;;;4.40;1.85;;;4.70;99.90;;;;;;5053787;28;20025;-79
2021/11/29 10:03:57;;;;;;;3.08;0.60;;;4.70;99.90;;;;;;5052217;28;20075;-81
2021/11/29 10:06:22;;;;;;;5.78;0.65;;;4.70;99.90;;;;;;5052649;28;20028;-82
2021/11/29 10:08:49;;;;;;;5.15;0.75;;;4.70;99.90;;;;;;5053490;28;20052;-81
2021/11/29 10:11:17;;;;;;;1.65;0.50;;;4.70;99.90;;;;;;5051801;28;20025;-82
2021/11/29 10:14:05;;;;;;;3.08;0.90;;;4.70;99.90;;;;;;5052740;28;20113;-82
2021/11/29 10:16:34;;;;;;;2.42;0.93;;;4.70;99.90;;;;;;5041167;28;20056;-81
2021/11/29 10:19:01;;;;;;;5.82;0.65;;;4.70;99.90;;;;;;5050832;28;20067;-84
2021/11/29 10:21:27;;;;;;;2.92;0.50;;;4.80;99.90;;;;;;5052466;28;20398;-82
2021/11/29 10:23:55;;;;;;;4.85;0.90;;;4.70;99.90;;;;;;5054120;28;20060;-81
2021/11/29 10:26:29;;;;;;;3.67;0.60;;;4.80;99.90;;;;;;5056326;28;20076;-82
2021/11/29 10:29:02;;;;;;;5.30;0.80;;;4.70;99.90;;;;;;5051980;28;20397;-82
2021/11/29 10:31:29;;;;;;;3.80;0.77;;;4.70;99.90;;;;;;5052130;28;20021;-83
2021/11/29 10:34:07;;;;;;;9.48;1.13;;;4.70;99.90;;;;;;5051701;28;20056;-83
2021/11/29 10:36:37;;;;;;;4.85;1.17;;;4.80;99.90;;;;;;5052381;28;20021;-83
2021/11/29 10:39:24;;;;;;;4.35;0.93;;;4.80;99.90;;;;;;5051860;28;20072;-83
2021/11/29 10:41:56;;;;;;;4.78;1.10;;;4.90;99.90;;;;;;5052670;28;20031;-84
2021/11/29 10:44:24;;;;;;;3.70;0.80;;;5.00;99.90;;;;;;5052890;28;20052;-84
2021/11/29 10:46:52;;;;;;;1.23;0.40;;;5.10;99.90;;;;;;5052825;28;20353;-84
2021/11/29 10:49:21;;;;;;;5.43;0.60;;;5.20;99.90;;;;;;5055031;28;20100;-83
2021/11/29 10:51:50;;;;;;;6.20;0.82;;;5.40;99.90;;;;;;5053488;28;20025;-83
2021/11/29 10:54:38;;;;;;;3.67;0.47;;;5.50;99.90;;;;;;5052381;28;20020;-84
2021/11/29 10:57:04;;;;;;;0.25;0.20;;;5.40;99.90;;;;;;5051624;28;20159;-84
2021/11/29 10:59:35;;;;;;;0.43;0.35;;;5.40;99.90;;;;;;5052356;28;20037;-84
2021/11/29 11:02:07;;;;;;;0.80;0.30;;;5.20;99.90;;;;;;5053999;28;20061;-84
2021/11/29 11:04:36;;;;;;;0.35;0.20;;;5.30;99.90;;;;;;5052604;28;20362;-83
2021/11/29 11:07:06;;;;;;;0.80;0.47;;;5.30;99.90;;;;;;5052111;28;20460;-85
2021/11/29 11:09:34;;;;;;;1.02;0.38;;;5.30;99.90;;;;;;5052325;28;20028;-86
2021/11/29 11:12:07;;;;;;;0.20;0.20;;;5.30;99.90;;;;;;5052129;28;20033;-84
2021/11/29 11:14:42;;;;;;;0.40;0.40;;;5.30;99.90;;;;;;5051764;28;20396;-84
2021/11/29 11:17:10;;;;;;;0.75;0.20;;;5.30;99.90;;;;;;5054930;28;20436;-85
2021/11/29 11:19:54;;;;;;;1.40;0.30;;;5.20;99.90;;;;;;5054729;28;20047;-84
2021/11/29 11:22:37;;;;;;;0.32;0.17;;;5.20;99.90;;;;;;5053313;28;20521;-85
2021/11/29 11:25:07;;;;;;;0.43;0.22;;;5.20;99.90;;;;;;5052109;28;20477;-85
2021/11/29 11:27:34;;;;;;;2.33;0.25;;;5.20;99.90;;;;;;5052436;28;20128;-85
2021/11/29 11:30:01;;;;;;;1.08;0.22;;;5.20;99.90;;;;;;5050954;28;20075;-85
2021/11/29 11:32:30;;;;;;;1.92;0.30;;;5.30;99.90;;;;;;5052022;28;20029;-84
2021/11/29 11:35:16;;;;;;;1.77;0.40;;;5.40;99.90;;;;;;5051604;28;20031;-85
2021/11/29 11:37:50;;;;;;;0.30;0.30;;;5.60;99.90;;;;;;5051500;28;20481;-83
2021/11/29 11:40:22;;;;;;;6.05;0.50;;;5.70;99.90;;;;;;5051959;28;20104;-86
2021/11/29 11:42:49;;;;;;;1.85;0.47;;;5.80;99.90;;;;;;5051961;28;20086;-85
2021/11/29 11:45:18;;;;;;;0.88;0.60;;;5.80;99.90;;;;;;5056629;28;20029;-85
2021/11/29 11:47:45;;;;;;;1.05;0.40;;;5.70;99.90;;;;;;5057341;28;20115;-85
2021/11/29 11:50:16;;;;;;;0.45;0.20;;;5.80;99.90;;;;;;5055492;28;20465;-85
2021/11/29 11:52:42;;;;;;;;;;;5.70;99.90;;;;;;5056637;28;20389;-86
2021/11/29 11:55:09;;;;;;;2.08;0.20;;;5.70;99.90;;;;;;5057083;28;19905;-86
2021/11/29 11:57:36;;;;;;;1.33;0.30;;;5.60;99.90;;;;;;5070770;28;20037;-86
2021/11/29 12:00:07;;;;;;;0.20;0.20;;;5.60;99.90;;;;;;5056642;28;20067;-85
2021/11/29 12:02:58;;;;;;;2.38;0.30;;;5.70;99.90;;;;;;5054983;28;20040;-85
2021/11/29 12:05:25;;;;;;;0.93;0.30;;;5.70;99.90;;;;;;5054925;28;20032;-85
2021/11/29 12:07:52;;;;;;;0.70;0.17;;;5.80;99.90;;;;;;5041817;28;20473;-86
2021/11/29 12:10:43;;;;;;;2.30;0.43;;;5.90;99.90;;;;;;5060600;28;20381;-84
2021/11/29 12:13:17;;;;;;;2.47;0.38;;;6.00;99.90;;;;;;5044329;28;20025;-86
2021/11/29 12:15:51;;;;;;;2.60;0.70;;;6.10;99.90;;;;;;5055083;28;20474;-86
2021/11/29 12:18:40;;;;;;;3.92;0.50;;;6.10;99.90;;;;;;5054428;28;20041;-85
2021/11/29 12:21:22;;;;;;;1.85;0.63;;;6.10;99.90;;;;;;5044238;28;20481;-84
2021/11/29 12:23:53;;;;;;;3.65;0.75;;;6.20;99.90;;;;;;5043296;28;20029;-86
2021/11/29 12:26:38;;;;;;;;;;;6.30;99.90;;;;;;5054762;28;20496;-85
2021/11/29 12:29:04;;;;;;;1.10;0.57;;;6.40;99.90;;;;;;5054571;28;20353;-86
2021/11/29 12:31:38;;;;;;;2.15;0.50;;;6.50;99.90;;;;;;5054762;28;20053;-86
2021/11/29 12:34:06;;;;;;;2.80;0.63;;;6.50;99.90;;;;;;5053858;28;20029;-86
2021/11/29 12:36:54;;;;;;;8.52;1.20;;;6.60;99.90;;;;;;5055270;28;20036;-85
2021/11/29 12:39:41;;;;;;;5.07;0.50;;;6.50;99.90;;;;;;5054258;28;20094;-85
2021/11/29 12:42:27;;;;;;;5.43;0.55;;;6.50;99.90;;;;;;5054863;28;20013;-86
2021/11/29 12:44:58;;;;;;;6.90;0.95;;;6.50;99.90;;;;;;5040945;28;20037;-87
2021/11/29 12:47:27;;;;;;;2.92;0.88;;;6.40;99.90;;;;;;5054464;28;20020;-85
2021/11/29 12:49:57;;;;;;;4.78;0.50;;;6.40;99.90;;;;;;5056120;28;20033;-87
2021/11/29 12:52:47;;;;;;;2.07;0.73;;;6.40;99.90;;;;;;5055173;28;20100;-86
2021/11/29 12:55:19;;;;;;;5.43;1.48;;;6.60;99.90;;;;;;5054252;28;20272;-85
2021/11/29 12:57:46;;;;;;;3.10;0.60;;;6.70;99.90;;;;;;5055033;28;20033;-85
2021/11/29 13:00:24;;;;;;;4.03;0.60;;;6.80;99.90;;;;;;5054529;28;20473;-85